createdAt,value
2019-05-30T00:00:23.522Z,1019.63
2019-05-30T00:01:04.260Z,1019.66
2019-05-30T00:01:44.687Z,1019.64
2019-05-30T00:02:25.256Z,1019.6
2019-05-30T00:03:05.821Z,1019.62
2019-05-30T00:03:46.380Z,1019.66
2019-05-30T00:04:26.939Z,1019.61
2019-05-30T00:05:07.517Z,1019.63
2019-05-30T00:05:48.084Z,1019.66
2019-05-30T00:06:28.646Z,1019.64
2019-05-30T00:07:11.060Z,1019.68
2019-05-30T00:07:49.914Z,1019.65
2019-05-30T00:08:30.479Z,1019.65
2019-05-30T00:09:11.052Z,1019.65
2019-05-30T00:09:51.641Z,1019.67
2019-05-30T00:10:32.208Z,1019.68
2019-05-30T00:11:12.779Z,1019.65
2019-05-30T00:11:54.612Z,1019.7
2019-05-30T00:12:33.915Z,1019.7
2019-05-30T00:13:14.474Z,1019.7
2019-05-30T00:13:55.026Z,1019.7
2019-05-30T00:14:35.575Z,1019.71
2019-05-30T00:15:16.160Z,1019.72
2019-05-30T00:15:56.743Z,1019.71
2019-05-30T00:16:37.287Z,1019.73
2019-05-30T00:17:17.851Z,1019.75
2019-05-30T00:17:58.670Z,1019.75
2019-05-30T00:18:38.975Z,1019.72
2019-05-30T00:19:19.539Z,1019.76
2019-05-30T00:20:00.937Z,1019.77
2019-05-30T00:20:40.691Z,1019.77
2019-05-30T00:21:21.252Z,1019.78
2019-05-30T00:22:03.704Z,1019.78
2019-05-30T00:22:42.390Z,1019.77
2019-05-30T00:23:22.946Z,1019.78
2019-05-30T00:24:04.161Z,1019.82
2019-05-30T00:24:44.085Z,1019.77
2019-05-30T00:25:24.643Z,1019.75
2019-05-30T00:26:05.215Z,1019.78
2019-05-30T00:26:45.774Z,1019.77
2019-05-30T00:27:26.341Z,1019.76
2019-05-30T00:28:07.539Z,1019.75
2019-05-30T00:28:47.539Z,1019.73
2019-05-30T00:29:28.106Z,1019.78
2019-05-30T00:30:23.043Z,1019.77
2019-05-30T00:30:49.252Z,1019.76
2019-05-30T00:31:29.811Z,1019.73
2019-05-30T00:32:10.372Z,1019.69
2019-05-30T00:32:50.947Z,1019.77
2019-05-30T00:33:31.492Z,1019.79
2019-05-30T00:34:12.049Z,1019.71
2019-05-30T00:34:52.611Z,1019.75
2019-05-30T00:35:33.180Z,1019.75
2019-05-30T00:36:13.750Z,1019.74
2019-05-30T00:36:55.559Z,1019.71
2019-05-30T00:37:34.884Z,1019.76
2019-05-30T00:38:15.443Z,1019.74
2019-05-30T00:38:56.006Z,1019.73
2019-05-30T00:39:36.567Z,1019.76
2019-05-30T00:40:17.159Z,1019.72
2019-05-30T00:40:57.879Z,1019.75
2019-05-30T00:41:38.293Z,1019.73
2019-05-30T00:42:18.851Z,1019.75
2019-05-30T00:43:00.016Z,1019.72
2019-05-30T00:43:39.966Z,1019.73
2019-05-30T00:44:20.533Z,1019.79
2019-05-30T00:45:08.693Z,1019.76
2019-05-30T00:45:41.715Z,1019.76
2019-05-30T00:46:22.272Z,1019.76
2019-05-30T00:47:02.864Z,1019.79
2019-05-30T00:47:43.429Z,1019.79
2019-05-30T00:48:23.979Z,1019.76
2019-05-30T00:49:04.619Z,1019.76
2019-05-30T00:49:45.081Z,1019.75
2019-05-30T00:50:25.660Z,1019.74
2019-05-30T00:51:06.718Z,1019.75
2019-05-30T00:51:46.795Z,1019.72
2019-05-30T00:52:27.353Z,1019.68
2019-05-30T00:53:07.922Z,1019.73
2019-05-30T00:53:48.524Z,1019.74
2019-05-30T00:54:29.102Z,1019.71
2019-05-30T00:55:09.661Z,1019.72
2019-05-30T00:55:50.255Z,1019.76
2019-05-30T00:56:30.839Z,1019.75
2019-05-30T00:57:11.405Z,1019.76
2019-05-30T00:57:51.964Z,1019.74
2019-05-30T00:58:32.526Z,1019.72
2019-05-30T00:59:13.083Z,1019.74
2019-05-30T00:59:53.641Z,1019.76
2019-05-30T01:00:43.127Z,1019.78
2019-05-30T01:01:14.756Z,1019.76
2019-05-30T01:01:56.529Z,1019.78
2019-05-30T01:02:35.884Z,1019.77
2019-05-30T01:03:16.453Z,1019.74
2019-05-30T01:03:57.009Z,1019.75
2019-05-30T01:04:37.572Z,1019.73
2019-05-30T01:05:18.130Z,1019.75
2019-05-30T01:05:58.778Z,1019.77
2019-05-30T01:06:39.252Z,1019.76
2019-05-30T01:07:19.808Z,1019.79
2019-05-30T01:08:00.856Z,1019.77
2019-05-30T01:08:40.943Z,1019.78
2019-05-30T01:09:21.514Z,1019.79
2019-05-30T01:10:03.137Z,1019.8
2019-05-30T01:10:42.628Z,1019.76
2019-05-30T01:11:23.209Z,1019.78
2019-05-30T01:12:03.761Z,1019.74
2019-05-30T01:12:44.348Z,1019.77
2019-05-30T01:13:24.918Z,1019.79
2019-05-30T01:14:05.530Z,1019.75
2019-05-30T01:14:46.039Z,1019.77
2019-05-30T01:15:26.603Z,1019.71
2019-05-30T01:16:07.367Z,1019.7
2019-05-30T01:16:47.738Z,1019.69
2019-05-30T01:17:28.326Z,1019.71
2019-05-30T01:18:08.898Z,1019.75
2019-05-30T01:18:49.483Z,1019.72
2019-05-30T01:19:30.036Z,1019.7
2019-05-30T01:20:10.588Z,1019.73
2019-05-30T01:20:51.156Z,1019.71
2019-05-30T01:21:31.811Z,1019.73
2019-05-30T01:22:12.395Z,1019.73
2019-05-30T01:22:52.938Z,1019.72
2019-05-30T01:23:33.494Z,1019.71
2019-05-30T01:24:14.057Z,1019.74
2019-05-30T01:24:54.619Z,1019.72
2019-05-30T01:25:35.185Z,1019.72
2019-05-30T01:26:15.740Z,1019.68
2019-05-30T01:26:57.119Z,1019.69
2019-05-30T01:27:36.862Z,1019.73
2019-05-30T01:28:17.418Z,1019.71
2019-05-30T01:28:59.241Z,1019.71
2019-05-30T01:29:38.541Z,1019.73
2019-05-30T01:30:19.096Z,1019.69
2019-05-30T01:31:04.111Z,1019.72
2019-05-30T01:31:40.220Z,1019.69
2019-05-30T01:32:20.783Z,1019.69
2019-05-30T01:33:01.792Z,1019.69
2019-05-30T01:33:41.916Z,1019.7
2019-05-30T01:34:22.488Z,1019.73
2019-05-30T01:35:03.830Z,1019.7
2019-05-30T01:35:43.622Z,1019.7
2019-05-30T01:36:24.183Z,1019.65
2019-05-30T01:37:05.802Z,1019.71
2019-05-30T01:37:45.335Z,1019.72
2019-05-30T01:38:25.904Z,1019.74
2019-05-30T01:39:06.469Z,1019.71
2019-05-30T01:39:47.030Z,1019.71
2019-05-30T01:40:27.591Z,1019.71
2019-05-30T01:41:08.175Z,1019.71
2019-05-30T01:41:48.721Z,1019.67
2019-05-30T01:42:29.277Z,1019.7
2019-05-30T01:43:09.836Z,1019.69
2019-05-30T01:43:50.394Z,1019.68
2019-05-30T01:44:30.963Z,1019.67
2019-05-30T01:45:11.523Z,1019.68
2019-05-30T01:45:52.118Z,1019.69
2019-05-30T01:46:32.675Z,1019.69
2019-05-30T01:47:13.231Z,1019.68
2019-05-30T01:47:53.788Z,1019.67
2019-05-30T01:48:34.352Z,1019.65
2019-05-30T01:49:14.930Z,1019.7
2019-05-30T01:49:55.491Z,1019.69
2019-05-30T01:50:36.056Z,1019.7
2019-05-30T01:51:16.624Z,1019.7
2019-05-30T01:51:58.295Z,1019.67
2019-05-30T01:52:37.742Z,1019.69
2019-05-30T01:53:18.305Z,1019.66
2019-05-30T01:53:58.855Z,1019.68
2019-05-30T01:54:39.421Z,1019.66
2019-05-30T01:55:19.981Z,1019.66
2019-05-30T01:56:00.774Z,1019.68
2019-05-30T01:56:41.120Z,1019.7
2019-05-30T01:57:21.673Z,1019.72
2019-05-30T01:58:03.211Z,1019.71
2019-05-30T01:58:42.806Z,1019.7
2019-05-30T01:59:23.376Z,1019.78
2019-05-30T02:00:07.648Z,1019.7
2019-05-30T02:00:44.518Z,1019.73
2019-05-30T02:01:25.784Z,1019.69
2019-05-30T02:02:07.070Z,1019.74
2019-05-30T02:02:46.289Z,1019.71
2019-05-30T02:03:26.870Z,1019.71
2019-05-30T02:04:07.463Z,1019.73
2019-05-30T02:04:48.001Z,1019.71
2019-05-30T02:05:28.569Z,1019.71
2019-05-30T02:06:09.413Z,1019.71
2019-05-30T02:06:49.700Z,1019.68
2019-05-30T02:07:30.280Z,1019.68
2019-05-30T02:08:10.853Z,1019.65
2019-05-30T02:08:51.419Z,1019.67
2019-05-30T02:09:31.991Z,1019.66
2019-05-30T02:10:12.551Z,1019.64
2019-05-30T02:10:53.109Z,1019.69
2019-05-30T02:11:33.678Z,1019.66
2019-05-30T02:12:14.235Z,1019.62
2019-05-30T02:12:54.811Z,1019.6
2019-05-30T02:13:35.387Z,1019.61
2019-05-30T02:14:15.956Z,1019.62
2019-05-30T02:14:56.534Z,1019.62
2019-05-30T02:15:37.157Z,1019.67
2019-05-30T02:16:17.735Z,1019.68
2019-05-30T02:16:59.492Z,1019.64
2019-05-30T02:17:38.876Z,1019.63
2019-05-30T02:18:19.431Z,1019.67
2019-05-30T02:18:59.990Z,1019.66
2019-05-30T02:19:40.547Z,1019.65
2019-05-30T02:20:21.113Z,1019.67
2019-05-30T02:21:02.100Z,1019.63
2019-05-30T02:21:42.250Z,1019.62
2019-05-30T02:22:22.817Z,1019.68
2019-05-30T02:23:05.537Z,1019.67
2019-05-30T02:23:43.962Z,1019.63
2019-05-30T02:24:24.540Z,1019.64
2019-05-30T02:25:06.018Z,1019.65
2019-05-30T02:25:45.667Z,1019.64
2019-05-30T02:26:26.237Z,1019.66
2019-05-30T02:27:06.803Z,1019.63
2019-05-30T02:30:20.760Z,1019.64
2019-05-30T02:31:02.899Z,1019.63
2019-05-30T02:31:41.895Z,1019.65
2019-05-30T02:32:22.451Z,1019.63
2019-05-30T02:33:03.614Z,1019.67
2019-05-30T02:33:43.576Z,1019.63
2019-05-30T02:34:24.128Z,1019.65
2019-05-30T02:35:05.243Z,1019.65
2019-05-30T02:35:45.230Z,1019.65
2019-05-30T02:36:25.793Z,1019.65
2019-05-30T02:38:53.916Z,1019.69
2019-05-30T02:39:34.471Z,1019.72
2019-05-30T02:40:15.484Z,1019.71
2019-05-30T02:40:55.627Z,1019.72
2019-05-30T02:41:36.194Z,1019.73
2019-05-30T02:42:16.727Z,1019.73
2019-05-30T02:42:57.290Z,1019.76
2019-05-30T02:43:37.881Z,1019.77
2019-05-30T02:44:18.493Z,1019.77
2019-05-30T02:44:59.050Z,1019.78
2019-05-30T02:45:39.643Z,1019.79
2019-05-30T02:46:20.227Z,1019.74
2019-05-30T02:49:19.498Z,1019.77
2019-05-30T02:50:01.469Z,1019.76
2019-05-30T02:50:40.637Z,1019.77
2019-05-30T02:51:21.193Z,1019.8
2019-05-30T02:52:02.516Z,1019.81
2019-05-30T02:52:42.335Z,1019.81
2019-05-30T02:53:22.891Z,1019.83
2019-05-30T02:54:04.057Z,1019.84
2019-05-30T02:54:44.021Z,1019.85
2019-05-30T02:55:24.596Z,1019.86
2019-05-30T02:56:05.961Z,1019.85
2019-05-30T02:56:45.706Z,1019.84
2019-05-30T02:57:26.286Z,1019.89
2019-05-30T02:58:12.754Z,1019.86
2019-05-30T02:58:51.470Z,1019.84
2019-05-30T02:59:32.047Z,1019.88
2019-05-30T03:00:16.413Z,1019.85
2019-05-30T03:00:53.203Z,1019.86
2019-05-30T03:01:33.728Z,1019.85
2019-05-30T03:02:17.206Z,1019.9
2019-05-30T03:02:54.881Z,1019.86
2019-05-30T03:03:35.447Z,1019.87
2019-05-30T03:04:16.009Z,1019.89
2019-05-30T03:04:56.603Z,1019.87
2019-05-30T03:05:37.162Z,1019.94
2019-05-30T03:06:17.704Z,1019.88
2019-05-30T03:06:58.270Z,1019.89
2019-05-30T03:07:38.839Z,1019.92
2019-05-30T03:08:19.417Z,1019.97
2019-05-30T03:09:01.674Z,1019.95
2019-05-30T03:09:40.601Z,1019.93
2019-05-30T03:10:21.110Z,1019.94
2019-05-30T03:11:02.401Z,1019.95
2019-05-30T03:11:42.270Z,1019.94
2019-05-30T03:12:22.811Z,1019.98
2019-05-30T03:13:04.061Z,1019.97
2019-05-30T03:13:43.942Z,1019.99
2019-05-30T03:14:24.530Z,1020.02
2019-05-30T03:15:06.733Z,1020.04
2019-05-30T03:15:45.691Z,1020.03
2019-05-30T03:16:26.269Z,1020.01
2019-05-30T03:17:09.208Z,1020.05
2019-05-30T03:17:47.390Z,1020.04
2019-05-30T03:18:28.022Z,1020.03
2019-05-30T03:19:10.884Z,1020.07
2019-05-30T03:19:49.172Z,1020.07
2019-05-30T03:20:29.729Z,1020.04
2019-05-30T03:21:12.587Z,1020
2019-05-30T03:21:50.994Z,1020.03
2019-05-30T03:22:31.508Z,1020.06
2019-05-30T03:23:12.734Z,1020.05
2019-05-30T03:23:52.671Z,1020.06
2019-05-30T03:24:33.227Z,1020.06
2019-05-30T03:25:16.059Z,1020.06
2019-05-30T03:25:54.337Z,1020.09
2019-05-30T03:26:34.910Z,1020.05
2019-05-30T03:27:15.503Z,1020.07
2019-05-30T03:27:56.076Z,1020.07
2019-05-30T03:28:36.659Z,1020.09
2019-05-30T03:29:17.248Z,1020.08
2019-05-30T03:29:57.793Z,1020.08
2019-05-30T03:30:38.759Z,1020.1
2019-05-30T03:31:27.606Z,1020.08
2019-05-30T03:32:29.321Z,1020.06
2019-05-30T03:33:37.235Z,1020.11
2019-05-30T03:34:04.745Z,1020.12
2019-05-30T03:34:42.278Z,1020.11
2019-05-30T03:35:29.147Z,1020.09
2019-05-30T03:36:06.126Z,1020.09
2019-05-30T03:36:44.020Z,1020.1
2019-05-30T03:37:28.954Z,1020.09
2019-05-30T03:38:05.704Z,1020.05
2019-05-30T03:38:45.805Z,1020.06
2019-05-30T03:39:26.353Z,1020.04
2019-05-30T03:40:06.925Z,1020.04
2019-05-30T03:40:47.526Z,1020.07
2019-05-30T03:41:28.119Z,1020.05
2019-05-30T03:42:09.411Z,1020.12
2019-05-30T03:42:49.290Z,1020.07
2019-05-30T03:43:29.886Z,1020.08
2019-05-30T03:44:12.883Z,1020.09
2019-05-30T03:44:51.038Z,1020.12
2019-05-30T03:45:31.612Z,1020.09
2019-05-30T03:46:13.145Z,1020.11
2019-05-30T03:46:52.752Z,1020.08
2019-05-30T03:47:33.353Z,1020.15
2019-05-30T03:48:15.948Z,1020.1
2019-05-30T03:48:54.459Z,1020.08
2019-05-30T03:49:35.019Z,1020.15
2019-05-30T03:50:17.581Z,1020.09
2019-05-30T03:50:56.164Z,1020.07
2019-05-30T03:51:36.708Z,1020.1
2019-05-30T03:52:17.528Z,1020.11
2019-05-30T03:52:57.833Z,1020.12
2019-05-30T03:53:38.399Z,1020.13
2019-05-30T03:54:19.012Z,1020.1
2019-05-30T03:54:59.602Z,1020.12
2019-05-30T03:55:40.153Z,1020.15
2019-05-30T03:56:20.737Z,1020.12
2019-05-30T03:57:01.326Z,1020.14
2019-05-30T03:57:41.878Z,1020.1
2019-05-30T03:58:22.431Z,1020.15
2019-05-30T03:59:03.018Z,1020.12
2019-05-30T03:59:43.580Z,1020.12
2019-05-30T04:00:24.141Z,1020.13
2019-05-30T04:01:05.884Z,1020.15
2019-05-30T04:01:45.288Z,1020.14
2019-05-30T04:02:25.860Z,1020.13
2019-05-30T04:03:07.329Z,1020.14
2019-05-30T04:03:46.975Z,1020.17
2019-05-30T04:04:27.545Z,1020.19
2019-05-30T04:05:09.241Z,1020.19
2019-05-30T04:05:48.682Z,1020.19
2019-05-30T04:06:29.263Z,1020.21
2019-05-30T04:07:11.862Z,1020.2
2019-05-30T04:07:50.374Z,1020.19
2019-05-30T04:08:30.953Z,1020.18
2019-05-30T04:09:12.450Z,1020.16
2019-05-30T04:09:52.090Z,1020.17
2019-05-30T04:10:32.687Z,1020.19
2019-05-30T04:11:14.691Z,1020.16
2019-05-30T04:11:53.842Z,1020.21
2019-05-30T04:12:34.426Z,1020.19
2019-05-30T04:13:16.823Z,1020.17
2019-05-30T04:13:55.538Z,1020.18
2019-05-30T04:14:36.121Z,1020.2
2019-05-30T04:15:18.664Z,1020.18
2019-05-30T04:15:57.294Z,1020.17
2019-05-30T04:16:37.855Z,1020.14
2019-05-30T04:17:19.910Z,1020.2
2019-05-30T04:17:58.986Z,1020.16
2019-05-30T04:18:39.532Z,1020.16
2019-05-30T04:19:20.301Z,1020.15
2019-05-30T04:20:00.669Z,1020.15
2019-05-30T04:20:41.232Z,1020.15
2019-05-30T04:21:21.901Z,1020.15
2019-05-30T04:22:02.367Z,1020.14
2019-05-30T04:22:42.933Z,1020.17
2019-05-30T04:23:23.485Z,1020.17
2019-05-30T04:24:04.045Z,1020.18
2019-05-30T04:24:44.602Z,1020.17
2019-05-30T04:25:25.181Z,1020.21
2019-05-30T04:26:07.241Z,1020.23
2019-05-30T04:26:46.292Z,1020.17
2019-05-30T04:27:26.855Z,1020.18
2019-05-30T04:28:07.806Z,1020.2
2019-05-30T04:28:48.003Z,1020.2
2019-05-30T04:29:28.588Z,1020.2
2019-05-30T04:30:09.949Z,1020.18
2019-05-30T04:30:49.986Z,1020.18
2019-05-30T04:31:30.553Z,1020.2
2019-05-30T04:32:12.441Z,1020.19
2019-05-30T04:32:51.684Z,1020.18
2019-05-30T04:33:33.630Z,1020.24
2019-05-30T04:34:14.733Z,1020.24
2019-05-30T04:34:53.407Z,1020.27
2019-05-30T04:35:33.962Z,1020.29
2019-05-30T04:36:14.769Z,1020.23
2019-05-30T04:36:55.119Z,1020.22
2019-05-30T04:37:35.722Z,1020.23
2019-05-30T04:38:17.069Z,1020.3
2019-05-30T04:38:56.870Z,1020.25
2019-05-30T04:39:37.514Z,1020.27
2019-05-30T04:40:19.664Z,1020.27
2019-05-30T04:40:58.630Z,1020.28
2019-05-30T04:41:39.217Z,1020.23
2019-05-30T04:42:20.751Z,1020.25
2019-05-30T04:43:00.346Z,1020.28
2019-05-30T04:43:40.925Z,1020.28
2019-05-30T04:44:21.567Z,1020.3
2019-05-30T04:45:02.124Z,1020.3
2019-05-30T04:45:42.758Z,1020.26
2019-05-30T04:46:23.267Z,1020.26
2019-05-30T04:47:03.882Z,1020.28
2019-05-30T04:47:44.467Z,1020.24
2019-05-30T04:48:25.065Z,1020.26
2019-05-30T04:49:05.641Z,1020.3
2019-05-30T04:49:46.216Z,1020.25
2019-05-30T04:50:26.793Z,1020.29
2019-05-30T04:51:07.396Z,1020.28
2019-05-30T04:51:48.012Z,1020.25
2019-05-30T04:52:28.590Z,1020.26
2019-05-30T04:53:10.146Z,1020.26
2019-05-30T04:53:49.728Z,1020.25
2019-05-30T04:54:30.313Z,1020.3
2019-05-30T04:55:12.961Z,1020.31
2019-05-30T04:55:51.460Z,1020.25
2019-05-30T04:56:32.002Z,1020.26
2019-05-30T04:57:12.790Z,1020.23
2019-05-30T04:57:53.168Z,1020.26
2019-05-30T04:58:33.754Z,1020.27
2019-05-30T04:59:15.205Z,1020.25
2019-05-30T04:59:54.901Z,1020.21
2019-05-30T05:00:35.482Z,1020.25
2019-05-30T05:01:17.676Z,1020.27
2019-05-30T05:01:56.661Z,1020.24
2019-05-30T05:02:37.268Z,1020.22
2019-05-30T05:03:36.742Z,1020.28
2019-05-30T05:03:58.434Z,1020.28
2019-05-30T05:04:39.007Z,1020.25
2019-05-30T05:05:24.658Z,1020.25
2019-05-30T05:06:00.200Z,1020.23
2019-05-30T05:06:40.777Z,1020.24
2019-05-30T05:07:21.995Z,1020.27
2019-05-30T05:08:01.974Z,1020.23
2019-05-30T05:08:42.573Z,1020.22
2019-05-30T05:09:23.123Z,1020.23
2019-05-30T05:10:03.726Z,1020.22
2019-05-30T05:10:44.305Z,1020.24
2019-05-30T05:11:25.469Z,1020.24
2019-05-30T05:12:05.460Z,1020.15
2019-05-30T05:12:46.052Z,1020.18
2019-05-30T05:13:26.637Z,1020.17
2019-05-30T05:14:07.253Z,1020.21
2019-05-30T05:14:47.841Z,1020.19
2019-05-30T05:15:28.410Z,1020.19
2019-05-30T05:16:22.788Z,1020.17
2019-05-30T05:16:49.573Z,1020.22
2019-05-30T05:17:30.168Z,1020.19
2019-05-30T05:18:10.749Z,1020.21
2019-05-30T05:18:51.306Z,1020.2
2019-05-30T05:19:31.889Z,1020.16
2019-05-30T05:20:13.035Z,1020.19
2019-05-30T05:20:53.081Z,1020.19
2019-05-30T05:21:33.660Z,1020.17
2019-05-30T05:22:14.816Z,1020.19
2019-05-30T05:22:54.873Z,1020.21
2019-05-30T05:23:35.451Z,1020.22
2019-05-30T05:24:17.196Z,1020.19
2019-05-30T05:24:56.628Z,1020.2
2019-05-30T05:25:37.224Z,1020.2
2019-05-30T05:26:17.820Z,1020.24
2019-05-30T05:26:58.392Z,1020.31
2019-05-30T05:27:38.992Z,1020.36
2019-05-30T05:28:19.938Z,1020.4
2019-05-30T05:29:00.209Z,1020.4
2019-05-30T05:29:40.789Z,1020.43
2019-05-30T05:30:22.461Z,1020.42
2019-05-30T05:31:02.095Z,1020.48
2019-05-30T05:31:42.622Z,1020.51
2019-05-30T05:32:24.531Z,1020.49
2019-05-30T05:33:03.796Z,1020.53
2019-05-30T05:33:56.017Z,1020.58
2019-05-30T05:34:24.945Z,1020.6
2019-05-30T05:35:05.559Z,1020.61
2019-05-30T05:35:46.131Z,1020.64
2019-05-30T05:36:26.720Z,1020.66
2019-05-30T05:37:07.293Z,1020.75
2019-05-30T05:37:47.886Z,1020.78
2019-05-30T05:38:28.578Z,1020.76
2019-05-30T05:39:09.082Z,1020.78
2019-05-30T05:39:49.657Z,1020.85
2019-05-30T05:40:30.247Z,1020.88
2019-05-30T05:41:10.824Z,1020.93
2019-05-30T05:41:51.383Z,1020.98
2019-05-30T05:42:31.977Z,1020.99
2019-05-30T05:43:12.582Z,1021.05
2019-05-30T05:43:53.187Z,1021.11
2019-05-30T05:44:33.761Z,1021.14
2019-05-30T05:45:14.340Z,1021.19
2019-05-30T05:45:54.945Z,1021.24
2019-05-30T05:46:35.535Z,1021.3
2019-05-30T05:47:16.431Z,1021.39
2019-05-30T05:47:56.752Z,1021.28
2019-05-30T05:48:37.343Z,1021.36
2019-05-30T05:49:18.370Z,1021.44
2019-05-30T05:49:58.503Z,1021.51
2019-05-30T05:50:39.076Z,1021.58
2019-05-30T05:51:20.743Z,1021.6
2019-05-30T05:52:00.261Z,1021.75
2019-05-30T05:52:40.844Z,1021.79
2019-05-30T05:53:21.463Z,1021.74
2019-05-30T05:54:02.037Z,1021.8
2019-05-30T05:54:42.598Z,1021.86
2019-05-30T05:55:23.203Z,1021.92
2019-05-30T05:56:03.814Z,1021.92
2019-05-30T05:56:44.417Z,1022.02
2019-05-30T05:57:25.087Z,1021.98
2019-05-30T05:58:05.626Z,1021.98
2019-05-30T05:58:46.184Z,1021.97
2019-05-30T05:59:26.803Z,1021.87
2019-05-30T06:00:07.387Z,1021.8
2019-05-30T06:00:47.983Z,1021.78
2019-05-30T06:01:30.067Z,1021.68
2019-05-30T06:02:09.166Z,1021.6
2019-05-30T06:02:49.743Z,1021.42
2019-05-30T06:03:30.345Z,1021.32
2019-05-30T06:04:13.367Z,1021.19
2019-05-30T06:04:51.514Z,1021.16
2019-05-30T06:05:32.134Z,1021.19
2019-05-30T06:06:12.716Z,1021.27
2019-05-30T06:06:53.346Z,1021.32
2019-05-30T06:07:33.984Z,1021.35
2019-05-30T06:08:14.580Z,1021.29
2019-05-30T06:08:55.192Z,1021.28
2019-05-30T06:09:35.815Z,1021.24
2019-05-30T06:10:17.487Z,1021.14
2019-05-30T06:10:57.094Z,1021.04
2019-05-30T06:11:37.779Z,1021.04
2019-05-30T06:12:19.339Z,1021.05
2019-05-30T06:12:58.960Z,1021.12
2019-05-30T06:13:39.580Z,1021.05
2019-05-30T06:14:20.190Z,1020.96
2019-05-30T06:15:00.809Z,1020.99
2019-05-30T06:15:41.459Z,1021.01
2019-05-30T06:16:22.108Z,1021.04
2019-05-30T06:17:02.744Z,1021.01
2019-05-30T06:17:43.388Z,1020.95
2019-05-30T06:18:24.226Z,1020.92
2019-05-30T06:19:04.604Z,1020.92
2019-05-30T06:19:46.650Z,1020.93
2019-05-30T06:20:25.853Z,1020.95
2019-05-30T06:21:06.434Z,1021.02
2019-05-30T06:21:53.812Z,1021.05
2019-05-30T06:22:27.659Z,1021.06
2019-05-30T06:23:08.179Z,1021.11
2019-05-30T06:23:48.786Z,1021.05
2019-05-30T06:24:29.353Z,1021.01
2019-05-30T06:25:09.965Z,1020.99
2019-05-30T06:25:50.540Z,1021.03
2019-05-30T06:26:31.111Z,1021.07
2019-05-30T06:27:11.740Z,1021.07
2019-05-30T06:27:52.313Z,1021.1
2019-05-30T06:28:32.898Z,1021.09
2019-05-30T06:29:13.560Z,1021.05
2019-05-30T06:29:54.118Z,1021.08
2019-05-30T06:30:34.712Z,1021.08
2019-05-30T06:31:15.704Z,1021.1
2019-05-30T06:31:56.284Z,1021.14
2019-05-30T06:32:36.886Z,1021.16
2019-05-30T06:33:18.540Z,1021.17
2019-05-30T06:33:58.241Z,1021.2
2019-05-30T06:34:39.921Z,1021.19
2019-05-30T06:35:21.245Z,1021.17
2019-05-30T06:36:00.096Z,1021
2019-05-30T06:36:40.739Z,1020.96
2019-05-30T06:37:21.346Z,1020.85
2019-05-30T06:38:01.972Z,1020.68
2019-05-30T06:38:42.561Z,1020.82
2019-05-30T06:39:23.472Z,1020.8
2019-05-30T06:40:03.755Z,1020.8
2019-05-30T06:40:44.343Z,1020.75
2019-05-30T06:41:25.585Z,1020.74
2019-05-30T06:42:05.516Z,1020.71
2019-05-30T06:42:46.129Z,1020.67
2019-05-30T06:43:28.127Z,1020.68
2019-05-30T06:44:07.401Z,1020.7
2019-05-30T06:44:48.003Z,1020.69
2019-05-30T06:45:28.576Z,1020.7
2019-05-30T06:46:09.174Z,1020.73
2019-05-30T06:46:49.776Z,1020.68
2019-05-30T06:47:30.554Z,1020.71
2019-05-30T06:48:11.034Z,1020.71
2019-05-30T06:48:51.552Z,1020.78
2019-05-30T06:49:32.133Z,1020.8
2019-05-30T06:50:12.739Z,1020.78
2019-05-30T06:50:53.335Z,1020.69
2019-05-30T06:51:33.942Z,1020.66
2019-05-30T06:52:14.541Z,1020.67
2019-05-30T06:52:55.140Z,1020.64
2019-05-30T06:53:35.716Z,1020.67
2019-05-30T06:54:16.393Z,1020.67
2019-05-30T06:54:56.893Z,1020.66
2019-05-30T06:55:37.488Z,1020.65
2019-05-30T06:56:18.077Z,1020.64
2019-05-30T06:56:58.656Z,1020.64
2019-05-30T06:57:39.241Z,1020.65
2019-05-30T06:58:35.196Z,1020.63
2019-05-30T06:59:00.459Z,1020.64
2019-05-30T06:59:41.068Z,1020.66
2019-05-30T07:00:21.770Z,1020.6
2019-05-30T07:01:02.245Z,1020.6
2019-05-30T07:01:42.851Z,1020.6
2019-05-30T07:02:24.194Z,1020.58
2019-05-30T07:03:04.347Z,1020.59
2019-05-30T07:03:45.160Z,1020.57
2019-05-30T07:04:27.340Z,1020.63
2019-05-30T07:05:06.532Z,1020.63
2019-05-30T07:05:47.039Z,1020.68
2019-05-30T07:06:27.939Z,1020.73
2019-05-30T07:07:08.012Z,1020.76
2019-05-30T07:07:48.552Z,1020.7
2019-05-30T07:08:29.004Z,1020.75
2019-05-30T07:09:09.626Z,1020.64
2019-05-30T07:09:50.212Z,1020.64
2019-05-30T07:10:31.150Z,1020.62
2019-05-30T07:11:11.420Z,1020.62
2019-05-30T07:11:52.024Z,1020.59
2019-05-30T07:12:33.196Z,1020.59
2019-05-30T07:13:13.235Z,1020.59
2019-05-30T07:13:53.821Z,1020.6
2019-05-30T07:14:34.401Z,1020.61
2019-05-30T07:15:15.003Z,1020.6
2019-05-30T07:15:55.589Z,1020.6
2019-05-30T07:16:36.224Z,1020.59
2019-05-30T07:17:16.798Z,1020.57
2019-05-30T07:17:57.399Z,1020.6
2019-05-30T07:18:37.986Z,1020.58
2019-05-30T07:19:18.592Z,1020.59
2019-05-30T07:19:59.194Z,1020.59
2019-05-30T07:20:39.791Z,1020.62
2019-05-30T07:21:20.396Z,1020.61
2019-05-30T07:22:00.974Z,1020.62
2019-05-30T07:22:41.548Z,1020.6
2019-05-30T07:23:22.151Z,1020.65
2019-05-30T07:24:02.779Z,1020.62
2019-05-30T07:24:43.415Z,1020.58
2019-05-30T07:25:23.998Z,1020.56
2019-05-30T07:26:04.606Z,1020.58
2019-05-30T07:26:45.183Z,1020.55
2019-05-30T07:27:26.167Z,1020.56
2019-05-30T07:28:06.418Z,1020.56
2019-05-30T07:28:47.234Z,1020.55
2019-05-30T07:29:28.095Z,1020.54
2019-05-30T07:30:08.601Z,1020.53
2019-05-30T07:30:49.190Z,1020.52
2019-05-30T07:31:30.177Z,1020.48
2019-05-30T07:32:13.261Z,1020.51
2019-05-30T07:32:50.991Z,1020.49
2019-05-30T07:33:32.883Z,1020.54
2019-05-30T07:34:12.148Z,1020.52
2019-05-30T07:35:05.470Z,1020.52
2019-05-30T07:35:34.134Z,1020.51
2019-05-30T07:36:14.021Z,1020.49
2019-05-30T07:36:54.608Z,1020.53
2019-05-30T07:37:35.218Z,1020.54
2019-05-30T07:38:15.830Z,1020.56
2019-05-30T07:38:56.422Z,1020.51
2019-05-30T07:39:37.575Z,1020.57
2019-05-30T07:40:19.557Z,1020.53
2019-05-30T07:40:58.188Z,1020.48
2019-05-30T07:41:38.803Z,1020.47
2019-05-30T07:42:19.460Z,1020.51
2019-05-30T07:42:59.992Z,1020.53
2019-05-30T07:43:40.595Z,1020.52
2019-05-30T07:44:21.175Z,1020.49
2019-05-30T07:45:01.775Z,1020.51
2019-05-30T07:45:46.828Z,1020.53
2019-05-30T07:46:23.019Z,1020.52
2019-05-30T07:47:03.639Z,1020.49
2019-05-30T07:47:44.228Z,1020.52
2019-05-30T07:48:25.933Z,1020.5
2019-05-30T07:49:05.427Z,1020.55
2019-05-30T07:49:46.004Z,1020.53
2019-05-30T07:50:26.627Z,1020.53
2019-05-30T07:51:07.243Z,1020.51
2019-05-30T07:51:47.839Z,1020.53
2019-05-30T07:52:28.438Z,1020.49
2019-05-30T07:53:09.049Z,1020.52
2019-05-30T07:53:49.670Z,1020.48
2019-05-30T07:54:30.956Z,1020.44
2019-05-30T07:55:10.838Z,1020.45
2019-05-30T07:55:51.447Z,1020.43
2019-05-30T07:56:33.372Z,1020.42
2019-05-30T07:57:12.648Z,1020.45
2019-05-30T07:57:53.249Z,1020.4
2019-05-30T07:58:33.844Z,1020.41
2019-05-30T07:59:14.452Z,1020.41
2019-05-30T07:59:55.028Z,1020.41
2019-05-30T08:00:35.700Z,1020.41
2019-05-30T08:01:16.209Z,1020.41
2019-05-30T08:01:56.813Z,1020.38
2019-05-30T08:02:37.967Z,1020.38
2019-05-30T08:03:17.970Z,1020.33
2019-05-30T08:03:58.545Z,1020.33
2019-05-30T08:04:39.142Z,1020.34
2019-05-30T08:05:23.915Z,1020.31
2019-05-30T08:06:00.316Z,1020.32
2019-05-30T08:06:40.890Z,1020.28
2019-05-30T08:07:21.489Z,1020.28
2019-05-30T08:08:02.068Z,1020.27
2019-05-30T08:08:42.680Z,1020.26
2019-05-30T08:09:23.253Z,1020.23
2019-05-30T08:10:03.893Z,1020.26
2019-05-30T08:10:44.452Z,1020.23
2019-05-30T08:11:25.041Z,1020.25
2019-05-30T08:12:05.779Z,1020.25
2019-05-30T08:12:46.371Z,1020.23
2019-05-30T08:13:27.044Z,1020.21
2019-05-30T08:14:07.562Z,1020.18
2019-05-30T08:14:48.154Z,1020.23
2019-05-30T08:15:29.227Z,1020.18
2019-05-30T08:16:09.377Z,1020.19
2019-05-30T08:16:50.024Z,1020.19
2019-05-30T08:17:31.514Z,1020.2
2019-05-30T08:18:11.210Z,1020.19
2019-05-30T08:18:51.806Z,1020.18
2019-05-30T08:19:33.011Z,1020.11
2019-05-30T08:20:13.017Z,1020.17